Dong Fang Chun — BRZL — position and weather

sailwx.info

Track history (hours):
 
Tides and Currents Weather Stations Pressure Air Temp Water Temp Dewpoint Dewpoint Depression Visibility Wind Speed Wind Dir Waves Ship Positions

Dong Fang Chun

Last reported at 2015-Aug-31 06:28 UTC. Time now 2015-Sep-01 16:08 UTC.
Position N 22°29' E 113°55'.

Length 23 m; draft 1.2 m.

Type: High speed craft. MMSI: 412461320.

Date/timePositionNaut miles runAvg speedWind from/ knotsBaromVisibWave heightAir tempDewpointWater temp
2015-Aug-31 06:28N 22°29' E 113°55'0 0.0
2015-Aug-31 05:33N 22°29' E 113°55'0 0.0
2015-Aug-31 04:33N 22°29' E 113°55'0 0.0
2015-Aug-31 03:33N 22°29' E 113°55'3 0.1
2015-Aug-29 02:15N 22°26' E 113°53'3 4.3
2015-Aug-29 01:33N 22°29' E 113°55'19 1.6
2015-Aug-28 13:32N 22°16' E 113°39'0 0.0
2015-Aug-28 10:32N 22°16' E 113°39'4 3.5
2015-Aug-28 09:22N 22°14' E 113°35'1821.8
2015-Aug-28 08:33N 22°24' E 113°51'2 2.3
2015-Aug-28 07:33N 22°23' E 113°49'1512.3
2015-Aug-28 06:18N 22°14' E 113°36'1823.8
2015-Aug-28 05:33N 22°24' E 113°52'5 5.3
2015-Aug-28 04:33N 22°29' E 113°55'0 0.0
2015-Aug-28 03:33N 22°29' E 113°55'0 0.0
2015-Aug-28 02:33N 22°29' E 113°55'0 0.0
2015-Aug-28 01:33N 22°29' E 113°55'0 0.0
2015-Aug-28 00:33N 22°29' E 113°55'0 0.0
2015-Aug-27 07:33N 22°29' E 113°55'19 1.0
2015-Aug-26 12:14N 22°16' E 113°39'3 3.3
2015-Aug-26 11:19N 22°14' E 113°36'2218.9
2015-Aug-26 10:08N 22°29' E 113°55'2 2.7
2015-Aug-26 09:33N 22°27' E 113°54'2110.7
2015-Aug-26 07:33N 22°14' E 113°36'2322.5
2015-Aug-26 06:33N 22°28' E 113°55'2115.2
2015-Aug-26 05:12N 22°15' E 113°38'2 3.8
2015-Aug-26 04:33N 22°14' E 113°35'2323.0
2015-Aug-26 03:34N 22°28' E 113°55'2210.8
2015-Aug-26 01:31N 22°15' E 113°36'2222.9
2015-Aug-26 00:34N 22°28' E 113°55'19 1.5
2015-Aug-25 12:16N 22°16' E 113°39'4 4.7
2015-Aug-25 11:25N 22°14' E 113°35'2111.4
2015-Aug-25 09:33N 22°27' E 113°54'2110.6
2015-Aug-25 07:33N 22°14' E 113°35'2323.0
2015-Aug-25 06:33N 22°28' E 113°55'1914.8
2015-Aug-25 05:17N 22°16' E 113°39'4 5.8
2015-Aug-25 04:33N 22°14' E 113°35'2323.2
2015-Aug-25 03:34N 22°28' E 113°55'2015.2
2015-Aug-25 02:14N 22°16' E 113°38'3 4.3
2015-Aug-25 01:33N 22°14' E 113°35'2322.9
2015-Aug-25 00:33N 22°29' E 113°55'0 0.2
2015-Aug-24 23:33N 22°29' E 113°55'2 0.1
2015-Aug-24 11:33N 22°27' E 113°54'2210.8
2015-Aug-24 09:32N 22°14' E 113°35'2323.0
2015-Aug-24 08:33N 22°28' E 113°55'1914.3
2015-Aug-24 07:13N 22°16' E 113°38'1 1.8
2015-Aug-24 06:32N 22°16' E 113°37'2121.4
2015-Aug-24 05:33N 22°29' E 113°55'2118.8
2015-Aug-24 04:28N 22°16' E 113°38'1011.0
2015-Aug-24 03:31N 22°21' E 113°47'8 7.9
2015-Aug-24 02:33N 22°26' E 113°53'2014.0
2015-Aug-24 01:07N 22°14' E 113°35'1221.6
2015-Aug-24 00:33N 22°21' E 113°46'7 0.6
2015-Aug-23 12:33N 22°17' E 113°40'4 3.6
2015-Aug-23 11:33N 22°15' E 113°36'2 1.1
2015-Aug-23 09:24N 22°16' E 113°39'9 8.1
2015-Aug-23 08:16N 22°21' E 113°47'10 3.4
2015-Aug-23 05:29N 22°16' E 113°38'9 7.4
2015-Aug-23 04:18N 22°21' E 113°46'1115.0
2015-Aug-23 03:33N 22°29' E 113°55'3 2.8
2015-Aug-23 02:33N 22°26' E 113°54'2113.9
2015-Aug-23 01:04N 22°14' E 113°35'1322.3
2015-Aug-23 00:28N 22°21' E 113°48'1010.1
2015-Aug-22 23:30N 22°29' E 113°55'0 0.0
2015-Aug-22 13:18N 22°29' E 113°55'1618.3
2015-Aug-22 12:25N 22°18' E 113°42'7 6.3
2015-Aug-22 11:21N 22°14' E 113°35'2022.1
2015-Aug-22 10:26N 22°26' E 113°53'0 0.6
2015-Aug-22 09:33N 22°26' E 113°54'2110.3
2015-Aug-22 07:33N 22°14' E 113°36'2322.5
2015-Aug-22 06:33N 22°28' E 113°55'1915.1
2015-Aug-22 05:17N 22°16' E 113°39'1 1.8
2015-Aug-22 04:31N 22°16' E 113°37'2121.7
2015-Aug-22 03:33N 22°29' E 113°55'2015.1
2015-Aug-22 02:15N 22°16' E 113°38'3 4.9
2015-Aug-22 01:33N 22°14' E 113°35'2323.0
2015-Aug-22 00:33N 22°29' E 113°55'0 0.2
2015-Aug-21 23:33N 22°29' E 113°55'0 0.0
2015-Aug-21 13:31N 22°29' E 113°55'2019.7
2015-Aug-21 12:31N 22°16' E 113°38'0 0.3
2015-Aug-21 11:32N 22°16' E 113°38'2019.8
2015-Aug-21 10:33N 22°29' E 113°55'2119.2
2015-Aug-21 09:27N 22°15' E 113°37'10 8.7
2015-Aug-21 08:20N 22°20' E 113°46'1215.0
2015-Aug-21 07:33N 22°29' E 113°55'0 0.0
2015-Aug-21 06:33N 22°29' E 113°55'  
Track history (hours):
 
Tides and Currents Weather Stations Pressure Air Temp Water Temp Dewpoint Dewpoint Depression Visibility Wind Speed Wind Dir Waves Ship Positions

Dong Fang Chun

Last reported at 2015-Aug-31 06:28 UTC. Time now 2015-Sep-01 16:08 UTC.
Position N 22°29' E 113°55'.

Length 23 m; draft 1.2 m.

Type: High speed craft. MMSI: 412461320.

Date/timePositionNaut miles runAvg speedWind from/ knotsBaromVisibWave heightAir tempDewpointWater temp
2015-Aug-31 06:28N 22°29' E 113°55'0 0.0
2015-Aug-31 05:33N 22°29' E 113°55'0 0.0
2015-Aug-31 04:33N 22°29' E 113°55'0 0.0
2015-Aug-31 03:33N 22°29' E 113°55'3 0.1
2015-Aug-29 02:15N 22°26' E 113°53'3 4.3
2015-Aug-29 01:33N 22°29' E 113°55'19 1.6
2015-Aug-28 13:32N 22°16' E 113°39'0 0.0
2015-Aug-28 10:32N 22°16' E 113°39'4 3.5
2015-Aug-28 09:22N 22°14' E 113°35'1821.8
2015-Aug-28 08:33N 22°24' E 113°51'2 2.3
2015-Aug-28 07:33N 22°23' E 113°49'1512.3
2015-Aug-28 06:18N 22°14' E 113°36'1823.8
2015-Aug-28 05:33N 22°24' E 113°52'5 5.3
2015-Aug-28 04:33N 22°29' E 113°55'0 0.0
2015-Aug-28 03:33N 22°29' E 113°55'0 0.0
2015-Aug-28 02:33N 22°29' E 113°55'0 0.0
2015-Aug-28 01:33N 22°29' E 113°55'0 0.0
2015-Aug-28 00:33N 22°29' E 113°55'0 0.0
2015-Aug-27 07:33N 22°29' E 113°55'19 1.0
2015-Aug-26 12:14N 22°16' E 113°39'3 3.3
2015-Aug-26 11:19N 22°14' E 113°36'2218.9
2015-Aug-26 10:08N 22°29' E 113°55'2 2.7
2015-Aug-26 09:33N 22°27' E 113°54'2110.7
2015-Aug-26 07:33N 22°14' E 113°36'2322.5
2015-Aug-26 06:33N 22°28' E 113°55'2115.2
2015-Aug-26 05:12N 22°15' E 113°38'2 3.8
2015-Aug-26 04:33N 22°14' E 113°35'2323.0
2015-Aug-26 03:34N 22°28' E 113°55'2210.8
2015-Aug-26 01:31N 22°15' E 113°36'2222.9
2015-Aug-26 00:34N 22°28' E 113°55'19 1.5
2015-Aug-25 12:16N 22°16' E 113°39'4 4.7
2015-Aug-25 11:25N 22°14' E 113°35'2111.4
2015-Aug-25 09:33N 22°27' E 113°54'2110.6
2015-Aug-25 07:33N 22°14' E 113°35'2323.0
2015-Aug-25 06:33N 22°28' E 113°55'1914.8
2015-Aug-25 05:17N 22°16' E 113°39'4 5.8
2015-Aug-25 04:33N 22°14' E 113°35'2323.2
2015-Aug-25 03:34N 22°28' E 113°55'2015.2
2015-Aug-25 02:14N 22°16' E 113°38'3 4.3
2015-Aug-25 01:33N 22°14' E 113°35'2322.9
2015-Aug-25 00:33N 22°29' E 113°55'0 0.2
2015-Aug-24 23:33N 22°29' E 113°55'2 0.1
2015-Aug-24 11:33N 22°27' E 113°54'2210.8
2015-Aug-24 09:32N 22°14' E 113°35'2323.0
2015-Aug-24 08:33N 22°28' E 113°55'1914.3
2015-Aug-24 07:13N 22°16' E 113°38'1 1.8
2015-Aug-24 06:32N 22°16' E 113°37'2121.4
2015-Aug-24 05:33N 22°29' E 113°55'2118.8
2015-Aug-24 04:28N 22°16' E 113°38'1011.0
2015-Aug-24 03:31N 22°21' E 113°47'8 7.9
2015-Aug-24 02:33N 22°26' E 113°53'2014.0
2015-Aug-24 01:07N 22°14' E 113°35'1221.6
2015-Aug-24 00:33N 22°21' E 113°46'7 0.6
2015-Aug-23 12:33N 22°17' E 113°40'4 3.6
2015-Aug-23 11:33N 22°15' E 113°36'2 1.1
2015-Aug-23 09:24N 22°16' E 113°39'9 8.1
2015-Aug-23 08:16N 22°21' E 113°47'10 3.4
2015-Aug-23 05:29N 22°16' E 113°38'9 7.4
2015-Aug-23 04:18N 22°21' E 113°46'1115.0
2015-Aug-23 03:33N 22°29' E 113°55'3 2.8
2015-Aug-23 02:33N 22°26' E 113°54'2113.9
2015-Aug-23 01:04N 22°14' E 113°35'1322.3
2015-Aug-23 00:28N 22°21' E 113°48'1010.1
2015-Aug-22 23:30N 22°29' E 113°55'0 0.0
2015-Aug-22 13:18N 22°29' E 113°55'1618.3
2015-Aug-22 12:25N 22°18' E 113°42'7 6.3
2015-Aug-22 11:21N 22°14' E 113°35'2022.1
2015-Aug-22 10:26N 22°26' E 113°53'0 0.6
2015-Aug-22 09:33N 22°26' E 113°54'2110.3
2015-Aug-22 07:33N 22°14' E 113°36'2322.5
2015-Aug-22 06:33N 22°28' E 113°55'1915.1
2015-Aug-22 05:17N 22°16' E 113°39'1 1.8
2015-Aug-22 04:31N 22°16' E 113°37'2121.7
2015-Aug-22 03:33N 22°29' E 113°55'2015.1
2015-Aug-22 02:15N 22°16' E 113°38'3 4.9
2015-Aug-22 01:33N 22°14' E 113°35'2323.0
2015-Aug-22 00:33N 22°29' E 113°55'0 0.2
2015-Aug-21 23:33N 22°29' E 113°55'0 0.0
2015-Aug-21 13:31N 22°29' E 113°55'2019.7
2015-Aug-21 12:31N 22°16' E 113°38'0 0.3
2015-Aug-21 11:32N 22°16' E 113°38'2019.8
2015-Aug-21 10:33N 22°29' E 113°55'2119.2
2015-Aug-21 09:27N 22°15' E 113°37'10 8.7
2015-Aug-21 08:20N 22°20' E 113°46'1215.0
2015-Aug-21 07:33N 22°29' E 113°55'0 0.0
2015-Aug-21 06:33N 22°29' E 113°55'  

Dump ship's entire track history